DRRN

Diori Hamani International Airport

Niamey, Niger
METAR DRRN 252200Z 20005KT CAVOK 35/14 Q1007 NOSIG
Observed Flight Rules
May-25 @ 22:00 UTC (36 minutes ago) Visual Flight Rules
Wind Visibility Clouds
200° at 5 knots 10,000+ meters
  • Clear skies
Temperatures Readings
Current 35°C / 95°F
Dewpoint 14°C / 57°F
Humidity 28%
Altimeter 29.73" Hg
Pressure 1007 hPa
Elevation 227
METAR DRRN 252200Z 20005KT CAVOK 35/14 Q1007 NOSIG
Observed Flight Rules
May-25 @ 22:00 UTC
(36 minutes ago)
VFR
Wind Visibility
200° at 5 knots 10,000+ meters
Clouds
  • Clear skies
Temperature Dewpoint
35°C / 95°F 14°C / 57°F
Humidity Altimeter Pressure
28% 29.73" Hg 1007 hPa